createdAt,value
2019-05-06T00:00:11.444Z,74.20
2019-05-06T00:02:45.675Z,73.03
2019-05-06T00:05:17.456Z,73.55
2019-05-06T00:07:56.926Z,73.66
2019-05-06T00:10:36.393Z,73.73
2019-05-06T00:13:08.522Z,74.02
2019-05-06T00:15:40.606Z,74.88
2019-05-06T00:18:13.871Z,75.31
2019-05-06T00:20:46.301Z,74.86
2019-05-06T00:23:24.928Z,74.92
2019-05-06T00:26:15.810Z,76.73
2019-05-06T00:28:53.763Z,77.19
2019-05-06T00:31:25.539Z,78.08
2019-05-06T00:33:57.465Z,78.41
2019-05-06T00:36:28.840Z,77.85
2019-05-06T00:39:06.206Z,77.38
2019-05-06T00:41:39.228Z,77.66
2019-05-06T00:44:11.193Z,76.91
2019-05-06T00:46:43.777Z,77.92
2019-05-06T00:49:17.611Z,78.49
2019-05-06T00:51:49.628Z,77.90
2019-05-06T00:54:24.837Z,77.84
2019-05-06T00:56:59.336Z,77.62
2019-05-06T00:59:31.172Z,77.02
2019-05-06T01:02:04.668Z,76.54
2019-05-06T01:04:37.931Z,76.29
2019-05-06T01:07:14.055Z,76.23
2019-05-06T01:09:46.310Z,75.91
2019-05-06T01:12:24.073Z,75.26
2019-05-06T01:14:57.970Z,74.22
2019-05-06T01:17:29.877Z,73.68
2019-05-06T01:20:01.782Z,73.49
2019-05-06T01:22:34.215Z,73.43
2019-05-06T01:25:10.036Z,73.45
2019-05-06T01:27:41.856Z,73.50
2019-05-06T01:30:14.649Z,73.39
2019-05-06T01:32:47.336Z,73.38
2019-05-06T01:35:19.337Z,73.44
2019-05-06T01:38:10.232Z,73.41
2019-05-06T01:41:16.483Z,73.53
2019-05-06T01:43:48.724Z,73.45
2019-05-06T01:46:20.675Z,72.75
2019-05-06T01:48:53.588Z,72.72
2019-05-06T01:51:25.751Z,72.97
2019-05-06T01:53:58.099Z,73.21
2019-05-06T01:56:30.160Z,73.02
2019-05-06T01:59:05.299Z,72.86
2019-05-06T02:01:37.311Z,73.03
2019-05-06T02:04:09.376Z,73.07
2019-05-06T02:06:43.754Z,72.57
2019-05-06T02:09:25.519Z,72.34
2019-05-06T02:11:57.721Z,72.53
2019-05-06T02:14:29.701Z,72.85
2019-05-06T02:17:03.612Z,72.97
2019-05-06T02:19:35.446Z,73.08
2019-05-06T02:22:18.691Z,73.11
2019-05-06T02:25:04.311Z,72.94
2019-05-06T02:27:35.054Z,73.10
2019-05-06T02:30:19.568Z,73.28
2019-05-06T02:32:57.599Z,73.57
2019-05-06T02:35:36.663Z,73.72
2019-05-06T02:38:26.537Z,74.08
2019-05-06T02:40:56.640Z,74.38
2019-05-06T02:43:27.829Z,74.81
2019-05-06T02:46:03.981Z,75.19
2019-05-06T02:48:43.352Z,75.48
2019-05-06T02:51:18.085Z,75.91
2019-05-06T02:53:49.935Z,76.07
2019-05-06T02:56:23.970Z,75.81
2019-05-06T02:58:55.332Z,75.79
2019-05-06T03:01:26.501Z,75.70
2019-05-06T03:03:57.612Z,76.05
2019-05-06T03:06:29.788Z,76.13
2019-05-06T03:09:03.193Z,76.24
2019-05-06T03:11:37.007Z,76.54
2019-05-06T03:14:08.915Z,76.92
2019-05-06T03:16:43.699Z,77.17
2019-05-06T03:19:16.201Z,77.56
2019-05-06T03:22:08.805Z,78.02
2019-05-06T03:24:57.345Z,78.38
2019-05-06T03:27:29.516Z,78.57
2019-05-06T03:30:04.086Z,78.71
2019-05-06T03:32:41.637Z,78.75
2019-05-06T03:35:31.480Z,79.22
2019-05-06T03:37:44.023Z,79.16
2019-05-06T03:40:16.588Z,78.73
2019-05-06T03:42:48.539Z,78.75
2019-05-06T03:45:33.415Z,78.77
2019-05-06T03:48:07.478Z,78.98
2019-05-06T03:50:39.465Z,79.04
2019-05-06T03:53:14.051Z,78.97
2019-05-06T03:55:48.091Z,78.73
2019-05-06T03:58:26.320Z,78.31
2019-05-06T04:00:57.208Z,77.87
2019-05-06T04:03:43.941Z,77.39
2019-05-06T04:06:06.763Z,76.88
2019-05-06T04:08:44.187Z,76.43
2019-05-06T04:11:25.082Z,76.15
2019-05-06T04:14:02.523Z,76.18
2019-05-06T04:16:53.389Z,75.79
2019-05-06T04:19:43.728Z,75.58
2019-05-06T04:22:28.255Z,75.22
2019-05-06T04:25:17.343Z,74.97
2019-05-06T04:27:53.761Z,74.55
2019-05-06T04:30:26.234Z,74.16
2019-05-06T04:32:58.793Z,73.72
2019-05-06T04:35:33.722Z,73.10
2019-05-06T04:38:05.217Z,72.29
2019-05-06T04:40:37.220Z,71.38
2019-05-06T04:43:13.062Z,70.83
2019-05-06T04:45:43.626Z,70.22
2019-05-06T04:48:15.160Z,69.45
2019-05-06T04:50:47.187Z,69.13
2019-05-06T04:53:19.642Z,68.10
2019-05-06T04:55:53.768Z,67.83
2019-05-06T04:58:26.679Z,67.67
2019-05-06T05:00:58.264Z,67.57
2019-05-06T05:03:33.373Z,67.42
2019-05-06T05:06:05.724Z,67.40
2019-05-06T05:08:46.266Z,67.41
2019-05-06T05:11:35.054Z,67.11
2019-05-06T05:14:21.688Z,66.28
2019-05-06T05:17:06.498Z,65.75
2019-05-06T05:19:38.430Z,65.23
2019-05-06T05:22:29.380Z,64.42
2019-05-06T05:25:03.514Z,64.09
2019-05-06T05:27:35.404Z,64.42
2019-05-06T05:30:09.727Z,65.04
2019-05-06T05:32:42.809Z,65.83
2019-05-06T05:35:14.946Z,66.58
2019-05-06T05:37:47.308Z,66.18
2019-05-06T05:40:19.426Z,65.01
2019-05-06T05:43:13.466Z,63.85
2019-05-06T05:45:46.710Z,63.15
2019-05-06T05:48:32.421Z,62.41
2019-05-06T05:51:03.464Z,62.54
2019-05-06T05:53:35.605Z,64.31
2019-05-06T05:56:08.362Z,65.06
2019-05-06T05:58:42.471Z,65.22
2019-05-06T06:01:13.858Z,65.93
2019-05-06T06:03:45.685Z,66.09
2019-05-06T06:06:17.975Z,65.81
2019-05-06T06:08:52.106Z,65.61
2019-05-06T06:11:39.288Z,65.92
2019-05-06T06:14:29.398Z,66.10
2019-05-06T06:17:23.262Z,66.12
2019-05-06T06:20:02.505Z,66.23
2019-05-06T06:22:35.307Z,66.25
2019-05-06T06:25:07.008Z,66.08
2019-05-06T06:27:49.261Z,65.58
2019-05-06T06:30:29.312Z,65.73
2019-05-06T06:33:02.605Z,65.25
2019-05-06T06:35:48.014Z,65.35
2019-05-06T06:38:46.671Z,64.84
2019-05-06T06:41:22.803Z,65.03
2019-05-06T06:43:59.622Z,64.97
2019-05-06T06:46:32.405Z,64.02
2019-05-06T06:49:04.722Z,62.12
2019-05-06T06:51:36.134Z,61.14
2019-05-06T06:54:09.060Z,60.46
2019-05-06T06:57:08.674Z,59.99
2019-05-06T06:59:52.229Z,60.50
2019-05-06T07:02:44.078Z,61.91
2019-05-06T07:05:28.512Z,60.56
2019-05-06T07:08:05.217Z,58.75
2019-05-06T07:10:43.603Z,59.87
2019-05-06T07:13:18.362Z,60.03
2019-05-06T07:18:52.606Z,57.15
2019-05-06T07:21:33.552Z,57.83
2019-05-06T07:24:05.201Z,58.59
2019-05-06T07:26:44.993Z,56.73
2019-05-06T07:29:24.266Z,57.07
2019-05-06T07:31:54.277Z,56.32
2019-05-06T07:34:27.413Z,55.10
2019-05-06T07:36:59.025Z,54.42
2019-05-06T07:39:33.912Z,54.78
2019-05-06T07:42:13.223Z,53.73
2019-05-06T07:45:12.716Z,54.73
2019-05-06T07:47:53.411Z,53.63
2019-05-06T07:50:25.146Z,53.25
2019-05-06T07:53:10.255Z,53.59
2019-05-06T07:55:42.591Z,53.87
2019-05-06T07:58:14.033Z,53.02
2019-05-06T08:00:47.490Z,52.22
2019-05-06T08:03:24.336Z,53.00
2019-05-06T08:05:58.734Z,51.74
2019-05-06T08:08:29.981Z,50.63
2019-05-06T08:11:02.713Z,50.68
2019-05-06T08:13:34.135Z,49.23
2019-05-06T08:16:10.023Z,47.66
2019-05-06T08:18:42.578Z,45.97
2019-05-06T08:21:22.350Z,43.75
2019-05-06T08:23:54.299Z,44.40
2019-05-06T08:26:29.106Z,45.23
2019-05-06T08:29:19.897Z,44.45
2019-05-06T08:32:03.853Z,44.15
2019-05-06T08:34:35.695Z,44.79
2019-05-06T08:37:26.360Z,44.12
2019-05-06T08:39:58.187Z,44.37
2019-05-06T08:42:30.092Z,42.55
2019-05-06T08:45:02.311Z,43.44
2019-05-06T08:47:34.392Z,42.63
2019-05-06T08:50:12.782Z,40.26
2019-05-06T08:53:18.971Z,39.86
2019-05-06T08:55:52.919Z,40.32
2019-05-06T08:58:43.501Z,40.80
2019-05-06T09:01:42.226Z,39.86
2019-05-06T09:04:16.324Z,38.96
2019-05-06T09:06:47.296Z,38.95
2019-05-06T09:09:18.499Z,39.44
2019-05-06T09:11:50.281Z,38.23
2019-05-06T09:14:23.217Z,37.30
2019-05-06T09:16:55.678Z,35.23
2019-05-06T09:19:27.628Z,36.26
2019-05-06T09:21:59.445Z,38.07
2019-05-06T09:24:32.152Z,39.88
2019-05-06T09:27:14.604Z,40.83
2019-05-06T09:30:07.416Z,41.11
2019-05-06T09:32:42.866Z,40.90
2019-05-06T09:35:15.184Z,40.52
2019-05-06T09:37:46.341Z,40.66
2019-05-06T09:40:18.342Z,41.41
2019-05-06T09:42:51.936Z,40.19
2019-05-06T09:45:22.972Z,37.18
2019-05-06T09:48:03.492Z,36.06
2019-05-06T09:50:45.450Z,36.13
2019-05-06T09:53:18.665Z,36.24
2019-05-06T09:56:15.458Z,35.61
2019-05-06T09:58:47.350Z,35.38
2019-05-06T10:01:19.290Z,35.86
2019-05-06T10:03:52.802Z,35.22
2019-05-06T10:06:24.092Z,33.50
2019-05-06T10:08:55.392Z,34.50
2019-05-06T10:11:27.171Z,34.86
2019-05-06T10:13:59.078Z,34.66
2019-05-06T10:16:32.505Z,36.01
2019-05-06T10:19:04.700Z,36.61
2019-05-06T10:21:36.737Z,36.69
2019-05-06T10:24:08.848Z,37.04
2019-05-06T10:26:45.909Z,35.56
2019-05-06T10:29:25.792Z,36.12
2019-05-06T10:32:16.479Z,37.15
2019-05-06T10:34:47.776Z,38.03
2019-05-06T10:37:37.120Z,37.20
2019-05-06T10:40:23.648Z,37.19
2019-05-06T10:43:28.977Z,36.33
2019-05-06T10:46:01.874Z,34.34
2019-05-06T10:48:34.437Z,32.84
2019-05-06T10:51:16.842Z,33.14
2019-05-06T10:53:47.388Z,33.88
2019-05-06T10:56:49.827Z,33.67
2019-05-06T10:59:12.871Z,33.41
2019-05-06T11:01:45.845Z,33.87
2019-05-06T11:04:17.697Z,34.64
2019-05-06T11:06:49.494Z,35.78
2019-05-06T11:09:22.677Z,36.21
2019-05-06T11:11:54.126Z,36.26
2019-05-06T11:14:25.883Z,36.03
2019-05-06T11:16:57.700Z,36.74
2019-05-06T11:19:29.517Z,35.88
2019-05-06T11:22:03.626Z,34.90
2019-05-06T11:24:34.951Z,34.97
2019-05-06T11:27:06.887Z,34.70
2019-05-06T11:29:40.439Z,34.71
2019-05-06T11:32:29.759Z,34.97
2019-05-06T11:35:05.820Z,35.04
2019-05-06T11:38:05.531Z,34.84
2019-05-06T11:40:37.409Z,33.45
2019-05-06T11:43:09.327Z,32.45
2019-05-06T11:45:42.757Z,31.74
2019-05-06T11:48:14.799Z,31.72
2019-05-06T11:50:48.430Z,31.31
2019-05-06T11:53:20.351Z,31.66
2019-05-06T11:55:54.447Z,31.14
2019-05-06T11:58:42.897Z,30.41
2019-05-06T12:01:23.624Z,30.99
2019-05-06T12:03:55.494Z,32.08
2019-05-06T12:06:27.484Z,32.57
2019-05-06T12:08:59.323Z,33.13
2019-05-06T12:11:31.270Z,33.02
2019-05-06T12:14:03.111Z,33.46
2019-05-06T12:16:35.892Z,33.60
2019-05-06T12:19:07.806Z,32.76
2019-05-06T12:21:39.659Z,32.73
2019-05-06T12:24:12.254Z,32.10
2019-05-06T12:26:44.213Z,32.07
2019-05-06T12:29:16.146Z,32.59
2019-05-06T12:31:52.937Z,32.11
2019-05-06T12:34:24.919Z,31.71
2019-05-06T12:36:58.818Z,31.37
2019-05-06T12:39:33.191Z,32.02
2019-05-06T12:42:18.717Z,31.54
2019-05-06T12:45:08.838Z,31.80
2019-05-06T12:48:05.611Z,31.17
2019-05-06T12:50:38.054Z,30.76
2019-05-06T12:53:09.981Z,30.39
2019-05-06T12:55:43.074Z,30.47
2019-05-06T12:58:20.203Z,31.38
2019-05-06T13:00:49.419Z,30.69
2019-05-06T13:03:23.294Z,30.97
2019-05-06T13:05:53.611Z,31.48
2019-05-06T13:08:32.491Z,31.77
2019-05-06T13:10:59.092Z,31.43
2019-05-06T13:13:32.982Z,31.78
2019-05-06T13:16:04.437Z,31.59
2019-05-06T13:18:36.255Z,32.21
2019-05-06T13:21:09.172Z,31.47
2019-05-06T13:23:45.473Z,31.06
2019-05-06T13:26:16.781Z,30.77
2019-05-06T13:28:53.300Z,30.91
2019-05-06T13:31:25.807Z,30.95
2019-05-06T13:34:05.059Z,30.33
2019-05-06T13:36:37.045Z,30.32
2019-05-06T13:39:14.370Z,30.18
2019-05-06T13:41:42.315Z,30.08
2019-05-06T13:44:15.829Z,29.37
2019-05-06T13:47:06.865Z,30.09
2019-05-06T13:49:52.213Z,30.05
2019-05-06T13:52:26.611Z,30.96
2019-05-06T13:54:58.461Z,31.31
2019-05-06T13:57:32.053Z,31.35
2019-05-06T14:00:04.575Z,31.56
2019-05-06T14:02:53.456Z,31.58
2019-05-06T14:05:26.982Z,30.75
2019-05-06T14:08:01.672Z,30.62
2019-05-06T14:10:32.803Z,30.52
2019-05-06T14:13:04.670Z,31.13
2019-05-06T14:15:36.591Z,31.23
2019-05-06T14:18:08.426Z,30.49
2019-05-06T14:20:40.328Z,30.30
2019-05-06T14:23:13.344Z,30.89
2019-05-06T14:26:04.131Z,30.71
2019-05-06T14:28:55.198Z,30.05
2019-05-06T14:31:29.664Z,30.17
2019-05-06T14:34:00.984Z,30.94
2019-05-06T14:36:32.958Z,31.52
2019-05-06T14:39:07.520Z,31.12
2019-05-06T14:41:44.523Z,31.59
2019-05-06T14:44:16.380Z,31.56
2019-05-06T14:47:12.623Z,31.31
2019-05-06T14:49:45.509Z,30.47
2019-05-06T14:52:17.721Z,30.46
2019-05-06T14:54:54.036Z,32.13
2019-05-06T14:57:26.680Z,32.53
2019-05-06T14:59:57.937Z,31.55
2019-05-06T15:02:29.315Z,30.83
2019-05-06T15:05:03.040Z,31.26
2019-05-06T15:07:35.616Z,31.33
2019-05-06T15:10:22.967Z,30.46
2019-05-06T15:12:50.141Z,30.94
2019-05-06T15:15:22.946Z,30.41
2019-05-06T15:17:55.320Z,30.88
2019-05-06T15:20:27.349Z,30.47
2019-05-06T15:23:04.400Z,30.57
2019-05-06T15:25:33.514Z,30.98
2019-05-06T15:28:05.140Z,30.86
2019-05-06T15:30:44.179Z,30.83
2019-05-06T15:33:18.353Z,30.96
2019-05-06T15:36:18.255Z,30.96
2019-05-06T15:38:52.606Z,31.86
2019-05-06T15:41:23.953Z,31.59
2019-05-06T15:43:56.132Z,31.38
2019-05-06T15:46:27.663Z,32.39
2019-05-06T15:48:59.914Z,32.93
2019-05-06T15:51:35.114Z,33.11
2019-05-06T15:54:17.831Z,33.74
2019-05-06T15:56:53.288Z,34.34
2019-05-06T15:59:24.254Z,34.39
2019-05-06T16:01:56.619Z,34.26
2019-05-06T16:04:28.713Z,33.71
2019-05-06T16:07:02.835Z,33.36
2019-05-06T16:09:39.744Z,33.75
2019-05-06T16:12:12.749Z,33.40
2019-05-06T16:14:46.211Z,34.33
2019-05-06T16:17:18.365Z,34.75
2019-05-06T16:19:50.002Z,35.60
2019-05-06T16:22:28.199Z,36.61
2019-05-06T16:25:17.483Z,35.51
2019-05-06T16:27:54.514Z,35.99
2019-05-06T16:30:24.901Z,35.35
2019-05-06T16:32:56.777Z,35.62
2019-05-06T16:35:28.210Z,36.04
2019-05-06T16:38:02.696Z,36.32
2019-05-06T16:40:42.578Z,36.92
2019-05-06T16:44:04.634Z,36.76
2019-05-06T16:46:27.766Z,37.15
2019-05-06T16:48:52.591Z,37.45
2019-05-06T16:51:32.615Z,37.75
2019-05-06T16:54:02.127Z,38.08
2019-05-06T16:56:52.917Z,38.40
2019-05-06T16:59:27.669Z,38.39
2019-05-06T17:02:01.218Z,37.86
2019-05-06T17:04:42.465Z,37.92
2019-05-06T17:07:15.064Z,37.24
2019-05-06T17:09:47.869Z,36.90
2019-05-06T17:12:19.291Z,36.52
2019-05-06T17:14:52.436Z,35.78
2019-05-06T17:17:24.449Z,36.24
2019-05-06T17:19:56.641Z,36.29
2019-05-06T17:22:32.988Z,36.41
2019-05-06T17:25:04.605Z,35.91
2019-05-06T17:27:38.537Z,35.43
2019-05-06T17:30:46.025Z,35.45
2019-05-06T17:33:35.264Z,35.85
2019-05-06T17:36:09.284Z,36.69
2019-05-06T17:38:44.697Z,36.40
2019-05-06T17:41:16.209Z,37.02
2019-05-06T17:43:47.536Z,36.85
2019-05-06T17:46:22.259Z,37.26
2019-05-06T17:49:03.479Z,37.50
2019-05-06T17:51:59.800Z,37.86
2019-05-06T17:54:32.481Z,38.33
2019-05-06T17:57:04.865Z,38.98
2019-05-06T17:59:37.845Z,39.31
2019-05-06T18:02:15.165Z,39.99
2019-05-06T18:05:06.137Z,41.74
2019-05-06T18:07:38.472Z,41.93
2019-05-06T18:10:12.018Z,42.78
2019-05-06T18:12:47.968Z,43.47
2019-05-06T18:15:18.641Z,44.34
2019-05-06T18:17:52.345Z,44.73
2019-05-06T18:20:23.313Z,45.13
2019-05-06T18:22:55.514Z,45.58
2019-05-06T18:25:27.655Z,45.47
2019-05-06T18:27:59.776Z,45.82
2019-05-06T18:30:34.379Z,46.01
2019-05-06T18:33:04.234Z,46.53
2019-05-06T18:35:36.552Z,46.66
2019-05-06T18:38:09.191Z,46.48
2019-05-06T18:40:42.369Z,46.86
2019-05-06T18:43:13.943Z,47.33
2019-05-06T18:45:49.284Z,47.22
2019-05-06T18:48:21.939Z,47.99
2019-05-06T18:50:53.752Z,47.97
2019-05-06T18:53:24.969Z,48.02
2019-05-06T18:55:56.918Z,48.91
2019-05-06T18:58:28.371Z,48.09
2019-05-06T19:01:00.445Z,47.66
2019-05-06T19:03:40.124Z,48.28
2019-05-06T19:06:12.274Z,48.32
2019-05-06T19:08:49.696Z,48.96
2019-05-06T19:11:22.245Z,49.09
2019-05-06T19:13:54.581Z,48.85
2019-05-06T19:16:25.904Z,48.23
2019-05-06T19:18:57.245Z,48.54
2019-05-06T19:21:29.232Z,49.02
2019-05-06T19:24:02.808Z,49.60
2019-05-06T19:26:35.412Z,50.17
2019-05-06T19:29:08.251Z,50.96
2019-05-06T19:31:39.906Z,51.71
2019-05-06T19:34:12.911Z,51.87
2019-05-06T19:36:44.643Z,51.51
2019-05-06T19:39:16.588Z,51.22
2019-05-06T19:41:48.603Z,51.17
2019-05-06T19:44:22.115Z,51.01
2019-05-06T19:46:53.671Z,51.17
2019-05-06T19:49:25.900Z,50.97
2019-05-06T19:51:58.909Z,50.98
2019-05-06T19:54:32.920Z,51.42
2019-05-06T19:57:03.927Z,51.93
2019-05-06T19:59:35.172Z,52.04
2019-05-06T20:02:06.495Z,52.33
2019-05-06T20:04:43.993Z,52.66
2019-05-06T20:07:26.903Z,52.83
2019-05-06T20:10:14.747Z,53.02
2019-05-06T20:13:01.476Z,53.24
2019-05-06T20:15:42.254Z,53.56
2019-05-06T20:18:14.359Z,54.06
2019-05-06T20:20:45.967Z,54.70
2019-05-06T20:23:17.263Z,55.14
2019-05-06T20:25:51.850Z,55.46
2019-05-06T20:28:22.875Z,55.70
2019-05-06T20:30:54.295Z,55.89
2019-05-06T20:33:25.575Z,56.27
2019-05-06T20:35:57.483Z,56.80
2019-05-06T20:38:30.167Z,57.15
2019-05-06T20:41:02.996Z,57.58
2019-05-06T20:43:35.923Z,58.17
2019-05-06T20:46:12.226Z,58.65
2019-05-06T20:48:42.774Z,58.79
2019-05-06T20:51:14.974Z,58.75
2019-05-06T20:53:46.346Z,59.15
2019-05-06T20:56:21.822Z,59.07
2019-05-06T20:58:52.922Z,59.42
2019-05-06T21:01:24.344Z,59.61
2019-05-06T21:03:56.542Z,59.66
2019-05-06T21:06:28.476Z,60.13
2019-05-06T21:08:59.799Z,60.24
2019-05-06T21:11:42.119Z,60.40
2019-05-06T21:14:18.229Z,60.67
2019-05-06T21:16:51.203Z,60.64
2019-05-06T21:19:23.308Z,60.91
2019-05-06T21:21:55.766Z,61.19
2019-05-06T21:24:29.485Z,60.66
2019-05-06T21:27:02.719Z,61.33
2019-05-06T21:29:34.608Z,61.66
2019-05-06T21:32:06.670Z,61.34
2019-05-06T21:34:38.934Z,61.51
2019-05-06T21:37:12.280Z,61.69
2019-05-06T21:39:44.223Z,62.05
2019-05-06T21:42:17.789Z,61.90
2019-05-06T21:44:48.950Z,61.94
2019-05-06T21:47:20.092Z,62.48
2019-05-06T21:49:52.849Z,62.45
2019-05-06T21:52:36.627Z,62.65
2019-05-06T21:54:58.344Z,62.68
2019-05-06T21:57:29.610Z,63.14
2019-05-06T22:00:02.653Z,63.35
2019-05-06T22:02:35.762Z,63.12
2019-05-06T22:05:08.442Z,63.27
2019-05-06T22:07:43.139Z,63.65
2019-05-06T22:10:14.148Z,63.98
2019-05-06T22:12:45.950Z,63.78
2019-05-06T22:15:17.858Z,63.58
2019-05-06T22:17:49.077Z,64.14
2019-05-06T22:20:23.621Z,64.91
2019-05-06T22:22:53.138Z,65.27
2019-05-06T22:25:24.862Z,65.46
2019-05-06T22:27:56.046Z,65.73
2019-05-06T22:30:27.190Z,66.13
2019-05-06T22:32:59.047Z,67.48
2019-05-06T22:35:32.527Z,67.71
2019-05-06T22:38:04.538Z,67.61
2019-05-06T22:40:35.690Z,68.19
2019-05-06T22:43:06.820Z,67.51
2019-05-06T22:45:38.618Z,67.37
2019-05-06T22:48:11.999Z,68.49
2019-05-06T22:50:43.543Z,68.43
2019-05-06T22:53:15.422Z,68.74
2019-05-06T22:55:46.669Z,68.97
2019-05-06T22:58:18.417Z,68.73
2019-05-06T23:00:53.533Z,68.90
2019-05-06T23:03:25.754Z,69.16
2019-05-06T23:05:57.647Z,69.02
2019-05-06T23:08:32.319Z,69.11
2019-05-06T23:11:03.377Z,70.41
2019-05-06T23:13:35.277Z,70.26
2019-05-06T23:16:06.461Z,70.12
2019-05-06T23:18:37.618Z,70.22
2019-05-06T23:21:08.752Z,70.06
2019-05-06T23:23:40.499Z,70.08
2019-05-06T23:26:22.762Z,70.93
2019-05-06T23:28:55.676Z,70.83
2019-05-06T23:31:26.978Z,71.24
2019-05-06T23:33:58.151Z,71.75
2019-05-06T23:37:08.224Z,71.75
2019-05-06T23:40:42.723Z,72.46
2019-05-06T23:43:49.382Z,73.29
2019-05-06T23:47:16.157Z,73.94
2019-05-06T23:50:42.838Z,74.49
2019-05-06T23:54:08.473Z,74.05
2019-05-06T23:56:44.637Z,73.56
2019-05-06T23:59:18.458Z,73.03
